createdAt,value
2022-09-03T00:00:53.049Z,511.00
2022-09-03T00:01:53.142Z,514.00
2022-09-03T00:02:53.055Z,512.00
2022-09-03T00:03:53.100Z,512.00
2022-09-03T00:04:53.011Z,513.00
2022-09-03T00:05:54.039Z,514.00
2022-09-03T00:06:52.959Z,516.00
2022-09-03T00:07:53.086Z,516.00
2022-09-03T00:08:53.006Z,515.00
2022-09-03T00:09:52.939Z,516.00
2022-09-03T00:10:52.932Z,514.00
2022-09-03T00:11:53.030Z,515.00
2022-09-03T00:12:52.890Z,514.00
2022-09-03T00:13:53.939Z,517.00
2022-09-03T00:14:52.897Z,515.00
2022-09-03T00:15:52.936Z,512.00
2022-09-03T00:16:52.851Z,514.00
2022-09-03T00:17:53.919Z,514.00
2022-09-03T00:18:52.839Z,517.00
2022-09-03T00:19:52.809Z,517.00
2022-09-03T00:20:52.832Z,519.00
2022-09-03T00:21:52.820Z,519.00
2022-09-03T00:22:52.789Z,521.00
2022-09-03T00:23:52.923Z,521.00
2022-09-03T00:24:52.781Z,518.00
2022-09-03T00:25:52.749Z,517.00
2022-09-03T00:26:52.699Z,517.00
2022-09-03T00:27:53.860Z,520.00
2022-09-03T00:28:52.680Z,519.00
2022-09-03T00:29:53.711Z,518.00
2022-09-03T00:30:52.736Z,517.00
2022-09-03T00:31:52.692Z,518.00
2022-09-03T00:32:52.673Z,519.00
2022-09-03T00:33:52.701Z,519.00
2022-09-03T00:34:52.609Z,521.00
2022-09-03T00:35:53.641Z,521.00
2022-09-03T00:36:52.571Z,522.00
2022-09-03T00:37:52.664Z,519.00
2022-09-03T00:38:52.539Z,522.00
2022-09-03T00:39:53.683Z,520.00
2022-09-03T00:40:52.591Z,517.00
2022-09-03T00:41:53.599Z,515.00
2022-09-03T00:42:52.489Z,514.00
2022-09-03T00:43:52.640Z,515.00
2022-09-03T00:44:52.490Z,513.00
2022-09-03T00:45:52.491Z,513.00
2022-09-03T00:46:52.522Z,513.00
2022-09-03T00:47:52.507Z,513.00
2022-09-03T00:48:52.400Z,514.00
2022-09-03T00:49:52.455Z,515.00
2022-09-03T00:50:52.398Z,514.00
2022-09-03T00:51:52.429Z,514.00
2022-09-03T00:52:52.422Z,514.00
2022-09-03T00:53:52.439Z,511.00
2022-09-03T00:54:52.324Z,510.00
2022-09-03T00:55:53.381Z,510.00
2022-09-03T00:56:52.339Z,509.00
2022-09-03T00:57:54.369Z,510.00
2022-09-03T00:58:52.330Z,509.00
2022-09-03T00:59:52.293Z,510.00
2022-09-03T01:00:52.240Z,510.00
2022-09-03T01:01:53.461Z,515.00
2022-09-03T01:02:52.325Z,513.00
2022-09-03T01:03:53.236Z,520.00
2022-09-03T01:04:52.308Z,519.00
2022-09-03T01:05:52.223Z,520.00
2022-09-03T01:06:52.160Z,516.00
2022-09-03T01:07:53.261Z,516.00
2022-09-03T01:08:52.163Z,514.00
2022-09-03T01:09:52.149Z,515.00
2022-09-03T01:10:52.180Z,517.00
2022-09-03T01:11:52.169Z,515.00
2022-09-03T01:12:52.080Z,515.00
2022-09-03T01:13:52.289Z,515.00
2022-09-03T01:14:52.088Z,516.00
2022-09-03T01:15:52.158Z,511.00
2022-09-03T01:16:52.109Z,512.00
2022-09-03T01:17:52.106Z,510.00
2022-09-03T01:18:51.999Z,509.00
2022-09-03T01:19:52.047Z,507.00
2022-09-03T01:20:51.993Z,510.00
2022-09-03T01:21:52.082Z,510.00
2022-09-03T01:22:51.946Z,510.00
2022-09-03T01:23:52.970Z,511.00
2022-09-03T01:24:51.921Z,512.00
2022-09-03T01:25:52.039Z,512.00
2022-09-03T01:26:51.965Z,513.00
2022-09-03T01:27:51.910Z,511.00
2022-09-03T01:28:51.859Z,513.00
2022-09-03T01:29:52.909Z,512.00
2022-09-03T01:30:51.917Z,513.00
2022-09-03T01:31:52.029Z,514.00
2022-09-03T01:32:51.849Z,514.00
2022-09-03T01:33:51.869Z,505.00
2022-09-03T01:34:51.838Z,510.00
2022-09-03T01:35:52.849Z,506.00
2022-09-03T01:36:51.760Z,508.00
2022-09-03T01:37:51.850Z,508.00
2022-09-03T01:38:51.767Z,506.00
2022-09-03T01:39:51.840Z,508.00
2022-09-03T01:40:51.771Z,510.00
2022-09-03T01:41:51.770Z,510.00
2022-09-03T01:42:51.671Z,509.00
2022-09-03T01:43:51.820Z,511.00
2022-09-03T01:44:53.085Z,510.00
2022-09-03T01:45:52.383Z,510.00
2022-09-03T01:46:51.686Z,509.00
2022-09-03T01:47:51.709Z,512.00
2022-09-03T01:48:51.600Z,511.00
2022-09-03T01:49:52.652Z,511.00
2022-09-03T01:50:51.569Z,512.00
2022-09-03T01:51:51.725Z,513.00
2022-09-03T01:52:51.599Z,513.00
2022-09-03T01:53:52.589Z,515.00
2022-09-03T01:54:51.567Z,512.00
2022-09-03T01:55:51.560Z,517.00
2022-09-03T01:56:51.489Z,516.00
2022-09-03T01:57:51.690Z,516.00
2022-09-03T01:58:51.510Z,518.00
2022-09-03T01:59:51.490Z,517.00
2022-09-03T02:00:51.531Z,518.00
2022-09-03T02:01:51.592Z,518.00
2022-09-03T02:02:51.714Z,521.00
2022-09-03T02:03:51.539Z,521.00
2022-09-03T02:04:51.401Z,521.00
2022-09-03T02:05:51.431Z,521.00
2022-09-03T02:06:51.349Z,522.00
2022-09-03T02:07:51.447Z,520.00
2022-09-03T02:08:51.329Z,520.00
2022-09-03T02:09:51.567Z,518.00
2022-09-03T02:10:51.314Z,516.00
2022-09-03T02:11:51.369Z,514.00
2022-09-03T02:12:51.276Z,517.00
2022-09-03T02:13:51.322Z,521.00
2022-09-03T02:14:51.270Z,524.00
2022-09-03T02:15:51.417Z,529.00
2022-09-03T02:16:51.219Z,531.00
2022-09-03T02:17:52.229Z,536.00
2022-09-03T02:18:51.190Z,537.00
2022-09-03T02:19:51.282Z,535.00
2022-09-03T02:20:51.204Z,535.00
2022-09-03T02:21:51.214Z,537.00
2022-09-03T02:22:51.141Z,535.00
2022-09-03T02:23:51.163Z,533.00
2022-09-03T02:24:51.112Z,532.00
2022-09-03T02:25:51.211Z,530.00
2022-09-03T02:26:51.099Z,530.00
2022-09-03T02:27:51.119Z,526.00
2022-09-03T02:28:51.060Z,530.00
2022-09-03T02:29:51.161Z,529.00
2022-09-03T02:30:51.120Z,532.00
2022-09-03T02:31:51.197Z,532.00
2022-09-03T02:32:51.080Z,534.00
2022-09-03T02:33:51.020Z,531.00
2022-09-03T02:34:50.975Z,530.00
2022-09-03T02:35:51.054Z,531.00
2022-09-03T02:36:50.949Z,532.00
2022-09-03T02:37:51.059Z,531.00
2022-09-03T02:38:50.980Z,530.00
2022-09-03T02:39:52.069Z,529.00
2022-09-03T02:40:50.916Z,529.00
2022-09-03T02:41:50.971Z,528.00
2022-09-03T02:42:50.871Z,524.00
2022-09-03T02:43:50.892Z,528.00
2022-09-03T02:44:50.919Z,524.00
2022-09-03T02:45:50.935Z,524.00
2022-09-03T02:46:50.889Z,527.00
2022-09-03T02:47:50.949Z,529.00
2022-09-03T02:48:50.810Z,530.00
2022-09-03T02:49:50.880Z,529.00
2022-09-03T02:50:50.830Z,527.00
2022-09-03T02:51:50.847Z,527.00
2022-09-03T02:52:50.749Z,528.00
2022-09-03T02:53:50.956Z,528.00
2022-09-03T02:54:50.740Z,528.00
2022-09-03T02:55:50.821Z,526.00
2022-09-03T02:56:50.730Z,525.00
2022-09-03T02:58:11.779Z,526.00
2022-09-03T02:58:50.659Z,526.00
2022-09-03T02:59:50.829Z,525.00
2022-09-03T03:00:50.718Z,523.00
2022-09-03T03:01:51.758Z,522.00
2022-09-03T03:02:50.700Z,524.00
2022-09-03T03:03:50.622Z,526.00
2022-09-03T03:04:50.580Z,523.00
2022-09-03T03:05:51.660Z,526.00
2022-09-03T03:06:50.629Z,523.00
2022-09-03T03:07:50.653Z,521.00
2022-09-03T03:08:50.585Z,520.00
2022-09-03T03:09:51.590Z,518.00
2022-09-03T03:10:50.500Z,514.00
2022-09-03T03:11:50.697Z,513.00
2022-09-03T03:12:50.571Z,514.00
2022-09-03T03:13:50.489Z,513.00
2022-09-03T03:14:50.447Z,514.00
2022-09-03T03:15:50.611Z,516.00
2022-09-03T03:16:50.481Z,519.00
2022-09-03T03:17:50.426Z,517.00
2022-09-03T03:18:50.438Z,513.00
2022-09-03T03:19:50.432Z,515.00
2022-09-03T03:20:50.359Z,514.00
2022-09-03T03:21:50.458Z,514.00
2022-09-03T03:22:50.352Z,514.00
2022-09-03T03:23:50.361Z,514.00
2022-09-03T03:24:50.389Z,518.00
2022-09-03T03:25:50.377Z,518.00
2022-09-03T03:26:50.286Z,517.00
2022-09-03T03:27:51.316Z,512.00
2022-09-03T03:28:50.259Z,511.00
2022-09-03T03:29:50.308Z,508.00
2022-09-03T03:30:50.391Z,511.00
2022-09-03T03:31:50.317Z,512.00
2022-09-03T03:32:50.207Z,512.00
2022-09-03T03:33:50.328Z,509.00
2022-09-03T03:34:50.180Z,510.00
2022-09-03T03:35:52.237Z,511.00
2022-09-03T03:36:50.229Z,517.00
2022-09-03T03:37:50.158Z,518.00
2022-09-03T03:38:50.118Z,519.00
2022-09-03T03:39:50.208Z,517.00
2022-09-03T03:40:50.099Z,517.00
2022-09-03T03:41:51.108Z,517.00
2022-09-03T03:42:50.118Z,520.00
2022-09-03T03:43:50.090Z,520.00
2022-09-03T03:44:50.040Z,517.00
2022-09-03T03:45:51.232Z,516.00
2022-09-03T03:46:50.019Z,516.00
2022-09-03T03:47:50.070Z,515.00
2022-09-03T03:48:50.007Z,514.00
2022-09-03T03:49:50.087Z,513.00
2022-09-03T03:50:50.041Z,510.00
2022-09-03T03:51:50.048Z,507.00
2022-09-03T03:52:49.941Z,507.00
2022-09-03T03:53:50.988Z,504.00
2022-09-03T03:54:49.930Z,506.00
2022-09-03T03:55:50.097Z,503.00
2022-09-03T03:56:55.587Z,502.00
2022-09-03T03:57:50.869Z,500.00
2022-09-03T03:58:49.898Z,499.00
2022-09-03T03:59:49.906Z,503.00
2022-09-03T04:00:50.012Z,503.00
2022-09-03T04:01:49.872Z,501.00
2022-09-03T04:02:49.875Z,503.00
2022-09-03T04:03:49.798Z,504.00
2022-09-03T04:04:50.872Z,504.00
2022-09-03T04:05:49.781Z,507.00
2022-09-03T04:06:50.878Z,507.00
2022-09-03T04:07:49.739Z,508.00
2022-09-03T04:08:49.795Z,507.00
2022-09-03T04:09:49.710Z,508.00
2022-09-03T04:10:50.820Z,509.00
2022-09-03T04:11:49.680Z,509.00
2022-09-03T04:12:49.751Z,510.00
2022-09-03T04:13:49.687Z,513.00
2022-09-03T04:14:49.770Z,516.00
2022-09-03T04:15:49.629Z,516.00
2022-09-03T04:16:49.767Z,517.00
2022-09-03T04:17:49.629Z,518.00
2022-09-03T04:18:49.688Z,522.00
2022-09-03T04:19:49.577Z,522.00
2022-09-03T04:20:49.649Z,526.00
2022-09-03T04:21:49.547Z,528.00
2022-09-03T04:22:52.061Z,528.00
2022-09-03T04:23:49.593Z,527.00
2022-09-03T04:24:49.577Z,523.00
2022-09-03T04:25:49.520Z,522.00
2022-09-03T04:26:49.619Z,520.00
2022-09-03T04:27:49.459Z,519.00
2022-09-03T04:28:50.588Z,518.00
2022-09-03T04:29:49.508Z,518.00
2022-09-03T04:30:49.530Z,517.00
2022-09-03T04:31:49.449Z,516.00
2022-09-03T04:32:49.482Z,517.00
2022-09-03T04:33:49.388Z,518.00
2022-09-03T04:34:50.468Z,520.00
2022-09-03T04:35:49.397Z,522.00
2022-09-03T04:36:52.825Z,525.00
2022-09-03T04:37:49.479Z,527.00
2022-09-03T04:38:49.376Z,528.00
2022-09-03T04:39:49.359Z,529.00
2022-09-03T04:40:49.439Z,530.00
2022-09-03T04:41:49.315Z,528.00
2022-09-03T04:42:49.299Z,529.00
2022-09-03T04:43:51.242Z,526.00
2022-09-03T04:44:49.309Z,527.00
2022-09-03T04:45:49.261Z,524.00
2022-09-03T04:46:49.379Z,526.00
2022-09-03T04:47:49.219Z,529.00
2022-09-03T04:48:49.238Z,529.00
2022-09-03T04:49:49.239Z,527.00
2022-09-03T04:50:49.259Z,528.00
2022-09-03T04:51:49.147Z,528.00
2022-09-03T04:52:51.335Z,528.00
2022-09-03T04:53:49.178Z,520.00
2022-09-03T04:54:49.169Z,519.00
2022-09-03T04:55:49.188Z,512.00
2022-09-03T04:56:50.279Z,514.00
2022-09-03T04:57:49.069Z,514.00
2022-09-03T04:58:51.076Z,513.00
2022-09-03T04:59:49.048Z,513.00
2022-09-03T05:00:49.186Z,512.00
2022-09-03T05:01:49.071Z,512.00
2022-09-03T05:02:51.159Z,513.00
2022-09-03T05:03:48.979Z,513.00
2022-09-03T05:04:49.151Z,512.00
2022-09-03T05:05:52.397Z,509.00
2022-09-03T05:06:48.959Z,508.00
2022-09-03T05:07:48.949Z,510.00
2022-09-03T05:08:48.973Z,508.00
2022-09-03T05:09:48.938Z,505.00
2022-09-03T05:10:49.015Z,503.00
2022-09-03T05:11:48.897Z,505.00
2022-09-03T05:12:49.960Z,509.00
2022-09-03T05:13:48.850Z,508.00
2022-09-03T05:14:48.918Z,510.00
2022-09-03T05:15:48.857Z,512.00
2022-09-03T05:16:52.758Z,512.00
2022-09-03T05:17:48.837Z,501.00
2022-09-03T05:18:48.841Z,505.00
2022-09-03T05:19:48.778Z,509.00
2022-09-03T05:20:48.857Z,514.00
2022-09-03T05:21:48.758Z,514.00
2022-09-03T05:22:48.896Z,516.00
2022-09-03T05:23:48.747Z,513.00
2022-09-03T05:24:48.785Z,514.00
2022-09-03T05:25:48.747Z,515.00
2022-09-03T05:26:49.788Z,507.00
2022-09-03T05:27:48.658Z,500.00
2022-09-03T05:28:48.725Z,499.00
2022-09-03T05:29:48.640Z,500.00
2022-09-03T05:30:48.719Z,497.00
2022-09-03T05:31:48.701Z,496.00
2022-09-03T05:32:48.698Z,487.00
2022-09-03T05:33:48.579Z,489.00
2022-09-03T05:34:49.674Z,491.00
2022-09-03T05:35:48.568Z,490.00
2022-09-03T05:36:48.558Z,491.00
2022-09-03T05:37:48.571Z,489.00
2022-09-03T05:38:53.858Z,490.00
2022-09-03T05:39:48.558Z,489.00
2022-09-03T05:40:48.719Z,489.00
2022-09-03T05:41:48.489Z,490.00
2022-09-03T05:42:48.499Z,492.00
2022-09-03T05:43:48.440Z,488.00
2022-09-03T05:44:48.579Z,487.00
2022-09-03T05:45:48.432Z,486.00
2022-09-03T05:46:48.499Z,492.00
2022-09-03T05:47:48.451Z,488.00
2022-09-03T05:48:48.449Z,485.00
2022-09-03T05:49:48.359Z,483.00
2022-09-03T05:50:48.518Z,484.00
2022-09-03T05:51:48.330Z,485.00
2022-09-03T05:52:48.371Z,482.00
2022-09-03T05:53:48.426Z,480.00
2022-09-03T05:54:48.387Z,477.00
2022-09-03T05:55:48.279Z,477.00
2022-09-03T05:56:49.411Z,500.00
2022-09-03T05:57:48.250Z,491.00
2022-09-03T05:58:48.308Z,480.00
2022-09-03T05:59:48.290Z,477.00
2022-09-03T06:00:48.328Z,477.00
2022-09-03T06:01:50.936Z,478.00
2022-09-03T06:02:48.386Z,475.00
2022-09-03T06:03:48.275Z,476.00
2022-09-03T06:04:48.167Z,478.00
2022-09-03T06:05:48.310Z,478.00
2022-09-03T06:06:48.150Z,477.00
2022-09-03T06:07:48.242Z,474.00
2022-09-03T06:08:48.159Z,471.00
2022-09-03T06:09:48.189Z,470.00
2022-09-03T06:10:48.079Z,469.00
2022-09-03T06:12:09.097Z,470.00
2022-09-03T06:12:48.069Z,469.00
2022-09-03T06:13:48.189Z,468.00
2022-09-03T06:14:48.050Z,471.00
2022-09-03T06:15:48.129Z,471.00
2022-09-03T06:16:48.031Z,469.00
2022-09-03T06:17:48.047Z,468.00
2022-09-03T06:18:47.972Z,470.00
2022-09-03T06:19:49.030Z,469.00
2022-09-03T06:20:48.012Z,469.00
2022-09-03T06:21:47.974Z,468.00
2022-09-03T06:22:47.911Z,470.00
2022-09-03T06:23:48.039Z,470.00
2022-09-03T06:24:47.891Z,471.00
2022-09-03T06:25:49.029Z,469.00
2022-09-03T06:26:47.886Z,470.00
2022-09-03T06:27:48.057Z,470.00
2022-09-03T06:28:47.838Z,471.00
2022-09-03T06:29:48.041Z,469.00
2022-09-03T06:30:47.821Z,467.00
2022-09-03T06:31:51.182Z,467.00
2022-09-03T06:32:47.841Z,467.00
2022-09-03T06:33:49.900Z,468.00
2022-09-03T06:34:47.751Z,470.00
2022-09-03T06:35:48.862Z,469.00
2022-09-03T06:36:47.759Z,470.00
2022-09-03T06:37:47.895Z,468.00
2022-09-03T06:38:47.711Z,461.00
2022-09-03T06:39:48.826Z,472.00
2022-09-03T06:40:47.672Z,456.00
2022-09-03T06:41:48.762Z,471.00
2022-09-03T06:42:47.684Z,466.00
2022-09-03T06:43:47.811Z,555.00
2022-09-03T06:44:47.662Z,438.00
2022-09-03T06:45:47.756Z,475.00
2022-09-03T06:46:47.592Z,468.00
2022-09-03T06:47:47.851Z,471.00
2022-09-03T06:48:47.602Z,475.00
2022-09-03T06:49:47.841Z,473.00
2022-09-03T06:50:47.599Z,465.00
2022-09-03T06:51:47.576Z,469.00
2022-09-03T06:52:47.522Z,471.00
2022-09-03T06:53:47.571Z,472.00
2022-09-03T06:54:47.579Z,472.00
2022-09-03T06:55:47.482Z,464.00
2022-09-03T06:57:57.624Z,525.00
2022-09-03T06:58:57.354Z,485.00
2022-09-03T06:59:57.437Z,478.00
2022-09-03T07:00:57.416Z,476.00
2022-09-03T07:01:57.645Z,473.00
2022-09-03T07:02:57.299Z,473.00
2022-09-03T07:03:58.378Z,473.00
2022-09-03T07:04:57.294Z,468.00
2022-09-03T07:05:57.670Z,467.00
2022-09-03T07:06:57.237Z,468.00
2022-09-03T07:08:19.380Z,467.00
2022-09-03T07:08:57.249Z,468.00
2022-09-03T07:09:57.198Z,470.00
2022-09-03T07:11:18.279Z,471.00
2022-09-03T07:11:57.167Z,465.00
2022-09-03T07:12:57.167Z,473.00
2022-09-03T07:13:59.447Z,469.00
2022-09-03T07:14:57.142Z,469.00
2022-09-03T07:15:57.308Z,471.00
2022-09-03T07:16:57.137Z,469.00
2022-09-03T07:17:57.205Z,470.00
2022-09-03T07:18:57.076Z,468.00
2022-09-03T07:19:57.139Z,469.00
2022-09-03T07:20:57.038Z,470.00
2022-09-03T07:21:57.277Z,471.00
2022-09-03T07:22:57.029Z,468.00
2022-09-03T07:23:58.127Z,471.00
2022-09-03T07:24:56.989Z,474.00
2022-09-03T07:25:57.148Z,477.00
2022-09-03T07:26:56.960Z,470.00
2022-09-03T07:27:57.020Z,474.00
2022-09-03T07:28:56.964Z,471.00
2022-09-03T07:29:58.043Z,468.00
2022-09-03T07:30:56.961Z,472.00
2022-09-03T07:31:57.082Z,471.00
2022-09-03T07:32:56.883Z,469.00
2022-09-03T07:33:57.082Z,470.00
2022-09-03T07:34:56.861Z,472.00
2022-09-03T07:35:57.941Z,472.00
2022-09-03T07:36:56.822Z,474.00
2022-09-03T07:37:56.875Z,472.00
2022-09-03T07:38:56.801Z,470.00
2022-09-03T07:39:56.999Z,473.00
2022-09-03T07:40:56.769Z,468.00
2022-09-03T07:41:56.958Z,470.00
2022-09-03T07:42:56.820Z,472.00
2022-09-03T07:43:57.932Z,472.00
2022-09-03T07:44:56.720Z,469.00
2022-09-03T07:45:56.845Z,471.00
2022-09-03T07:46:56.740Z,470.00
2022-09-03T07:47:58.823Z,472.00
2022-09-03T07:48:56.699Z,474.00
2022-09-03T07:49:56.770Z,475.00
2022-09-03T07:50:56.634Z,472.00
2022-09-03T07:51:56.750Z,469.00
2022-09-03T07:52:56.623Z,471.00
2022-09-03T07:53:56.631Z,471.00
2022-09-03T07:54:56.680Z,469.00
2022-09-03T07:55:56.673Z,473.00
2022-09-03T07:56:56.551Z,472.00
2022-09-03T07:57:59.830Z,470.00
2022-09-03T07:58:56.531Z,472.00
2022-09-03T07:59:56.668Z,473.00
2022-09-03T08:00:56.591Z,476.00
2022-09-03T08:01:56.675Z,474.00
2022-09-03T08:02:56.480Z,480.00
2022-09-03T08:03:58.743Z,477.00
2022-09-03T08:04:56.461Z,471.00
2022-09-03T08:05:56.562Z,478.00
2022-09-03T08:06:56.458Z,480.00
2022-09-03T08:07:57.516Z,480.00
2022-09-03T08:08:58.771Z,481.00
2022-09-03T08:09:57.393Z,481.00
2022-09-03T08:10:56.485Z,477.00
2022-09-03T08:11:56.342Z,473.00
2022-09-03T08:12:56.415Z,471.00
2022-09-03T08:13:56.332Z,470.00
2022-09-03T08:14:56.512Z,470.00
2022-09-03T08:15:56.365Z,470.00
2022-09-03T08:16:56.384Z,472.00
2022-09-03T08:18:03.493Z,468.00
2022-09-03T08:18:57.253Z,472.00
2022-09-03T08:19:56.403Z,473.00
2022-09-03T08:20:56.254Z,471.00
2022-09-03T08:21:57.264Z,474.00
2022-09-03T08:22:56.263Z,471.00
2022-09-03T08:23:57.293Z,472.00
2022-09-03T08:24:56.253Z,473.00
2022-09-03T08:25:56.244Z,472.00
2022-09-03T08:26:56.184Z,473.00
2022-09-03T08:27:57.155Z,473.00
2022-09-03T08:28:56.123Z,470.00
2022-09-03T08:29:57.247Z,473.00
2022-09-03T08:30:56.156Z,472.00
2022-09-03T08:31:56.314Z,468.00
2022-09-03T08:32:56.088Z,468.00
2022-09-03T08:33:56.206Z,471.00
2022-09-03T08:34:56.114Z,470.00
2022-09-03T08:35:56.200Z,470.00
2022-09-03T08:36:56.064Z,469.00
2022-09-03T08:37:57.078Z,471.00
2022-09-03T08:38:56.013Z,468.00
2022-09-03T08:39:58.297Z,466.00
2022-09-03T08:40:56.026Z,465.00
2022-09-03T08:41:56.123Z,462.00
2022-09-03T08:42:55.935Z,467.00
2022-09-03T08:43:57.114Z,467.00
2022-09-03T08:44:55.937Z,466.00
2022-09-03T08:45:58.087Z,463.00
2022-09-03T08:46:55.920Z,462.00
2022-09-03T08:47:55.896Z,462.00
2022-09-03T08:48:55.900Z,468.00
2022-09-03T08:49:55.957Z,473.00
2022-09-03T08:50:55.824Z,473.00
2022-09-03T08:51:55.988Z,471.00
2022-09-03T08:52:55.859Z,467.00
2022-09-03T08:53:55.889Z,467.00
2022-09-03T08:54:55.791Z,460.00
2022-09-03T08:55:56.908Z,463.00
2022-09-03T08:56:55.749Z,461.00
2022-09-03T08:57:55.917Z,462.00
2022-09-03T08:58:55.779Z,465.00
2022-09-03T08:59:55.799Z,468.00
2022-09-03T09:00:55.710Z,467.00
2022-09-03T09:01:55.947Z,461.00
2022-09-03T09:02:55.717Z,467.00
2022-09-03T09:03:55.816Z,464.00
2022-09-03T09:04:55.731Z,461.00
2022-09-03T09:05:55.832Z,458.00
2022-09-03T09:06:55.639Z,455.00
2022-09-03T09:07:55.639Z,457.00
2022-09-03T09:08:55.590Z,459.00
2022-09-03T09:09:55.725Z,460.00
2022-09-03T09:10:55.637Z,459.00
2022-09-03T09:11:55.659Z,462.00
2022-09-03T09:12:55.532Z,460.00
2022-09-03T09:14:16.559Z,462.00
2022-09-03T09:14:55.500Z,461.00
2022-09-03T09:15:56.676Z,457.00
2022-09-03T09:16:55.541Z,454.00
2022-09-03T09:17:56.700Z,461.00
2022-09-03T09:18:55.450Z,458.00
2022-09-03T09:19:55.592Z,458.00
2022-09-03T09:20:55.422Z,457.00
2022-09-03T09:21:55.639Z,460.00
2022-09-03T09:22:55.519Z,460.00
2022-09-03T09:23:55.520Z,462.00
2022-09-03T09:24:55.361Z,460.00
2022-09-03T09:25:56.480Z,459.00
2022-09-03T09:26:55.341Z,461.00
2022-09-03T09:27:55.491Z,453.00
2022-09-03T09:28:55.413Z,451.00
2022-09-03T09:30:16.370Z,457.00
2022-09-03T09:30:55.357Z,452.00
2022-09-03T09:32:16.442Z,452.00
2022-09-03T09:32:55.260Z,451.00
2022-09-03T09:33:55.502Z,453.00
2022-09-03T09:34:55.370Z,452.00
2022-09-03T09:35:56.262Z,449.00
2022-09-03T09:36:55.204Z,451.00
2022-09-03T09:37:55.322Z,452.00
2022-09-03T09:38:55.203Z,453.00
2022-09-03T09:39:55.482Z,454.00
2022-09-03T09:40:55.162Z,454.00
2022-09-03T09:41:55.165Z,452.00
2022-09-03T09:42:55.133Z,455.00
2022-09-03T09:43:55.274Z,451.00
2022-09-03T09:44:55.131Z,452.00
2022-09-03T09:45:55.312Z,450.00
2022-09-03T09:46:55.134Z,456.00
2022-09-03T09:47:55.149Z,453.00
2022-09-03T09:48:55.076Z,450.00
2022-09-03T09:49:56.223Z,448.00
2022-09-03T09:50:55.044Z,446.00
2022-09-03T09:51:55.025Z,449.00
2022-09-03T09:52:58.657Z,450.00
2022-09-03T09:53:54.986Z,448.00
2022-09-03T09:54:55.175Z,449.00
2022-09-03T09:55:54.968Z,447.00
2022-09-03T09:56:55.115Z,451.00
2022-09-03T09:57:54.935Z,450.00
2022-09-03T09:58:54.989Z,451.00
2022-09-03T09:59:54.905Z,455.00
2022-09-03T10:00:55.123Z,452.00
2022-09-03T10:01:55.016Z,450.00
2022-09-03T10:02:56.044Z,448.00
2022-09-03T10:03:54.846Z,446.00
2022-09-03T10:04:54.995Z,442.00
2022-09-03T10:05:54.817Z,442.00
2022-09-03T10:06:55.045Z,444.00
2022-09-03T10:07:54.860Z,450.00
2022-09-03T10:08:54.863Z,448.00
2022-09-03T10:09:54.765Z,452.00
2022-09-03T10:10:54.905Z,447.00
2022-09-03T10:11:54.736Z,447.00
2022-09-03T10:12:55.868Z,446.00
2022-09-03T10:13:54.775Z,443.00
2022-09-03T10:14:54.876Z,447.00
2022-09-03T10:15:54.724Z,450.00
2022-09-03T10:16:54.709Z,447.00
2022-09-03T10:17:54.655Z,449.00
2022-09-03T10:18:54.887Z,439.00
2022-09-03T10:19:54.735Z,445.00
2022-09-03T10:20:54.783Z,446.00
2022-09-03T10:21:54.599Z,442.00
2022-09-03T10:22:56.759Z,450.00
2022-09-03T10:23:54.569Z,448.00
2022-09-03T10:24:54.789Z,451.00
2022-09-03T10:25:54.658Z,449.00
2022-09-03T10:26:54.581Z,448.00
2022-09-03T10:27:54.517Z,448.00
2022-09-03T10:28:56.901Z,448.00
2022-09-03T10:29:54.489Z,446.00
2022-09-03T10:30:54.585Z,449.00
2022-09-03T10:31:54.578Z,450.00
2022-09-03T10:32:54.588Z,447.00
2022-09-03T10:33:54.436Z,445.00
2022-09-03T10:34:54.520Z,445.00
2022-09-03T10:35:54.398Z,441.00
2022-09-03T10:36:54.537Z,447.00
2022-09-03T10:37:54.452Z,448.00
2022-09-03T10:38:54.489Z,447.00
2022-09-03T10:39:54.376Z,447.00
2022-09-03T10:40:54.421Z,446.00
2022-09-03T10:41:54.337Z,448.00
2022-09-03T10:42:54.539Z,446.00
2022-09-03T10:43:54.401Z,452.00
2022-09-03T10:44:54.400Z,455.00
2022-09-03T10:45:54.304Z,452.00
2022-09-03T10:46:54.362Z,451.00
2022-09-03T10:47:54.269Z,448.00
2022-09-03T10:48:54.412Z,449.00
2022-09-03T10:49:54.302Z,446.00
2022-09-03T10:50:54.231Z,443.00
2022-09-03T10:51:54.192Z,449.00
2022-09-03T10:52:54.341Z,447.00
2022-09-03T10:53:54.193Z,444.00
2022-09-03T10:54:54.383Z,442.00
2022-09-03T10:55:54.171Z,442.00
2022-09-03T10:56:55.309Z,440.00
2022-09-03T10:57:54.112Z,437.00
2022-09-03T10:58:54.253Z,441.00
2022-09-03T10:59:54.102Z,442.00
2022-09-03T11:00:54.280Z,440.00
2022-09-03T11:01:54.213Z,448.00
2022-09-03T11:02:55.331Z,438.00
2022-09-03T11:03:54.034Z,444.00
2022-09-03T11:04:54.102Z,444.00
2022-09-03T11:05:54.003Z,446.00
2022-09-03T11:06:56.185Z,446.00
2022-09-03T11:07:53.985Z,447.00
2022-09-03T11:08:56.125Z,442.00
2022-09-03T11:09:53.953Z,442.00
2022-09-03T11:10:54.114Z,439.00
2022-09-03T11:11:53.924Z,439.00
2022-09-03T11:12:53.995Z,439.00
2022-09-03T11:13:53.975Z,439.00
2022-09-03T11:14:54.027Z,439.00
2022-09-03T11:15:53.905Z,438.00
2022-09-03T11:16:54.016Z,442.00
2022-09-03T11:17:53.926Z,443.00
2022-09-03T11:18:54.016Z,441.00
2022-09-03T11:19:53.815Z,440.00
2022-09-03T11:20:56.130Z,449.00
2022-09-03T11:21:53.798Z,438.00
2022-09-03T11:22:53.947Z,440.00
2022-09-03T11:23:55.014Z,445.00
2022-09-03T11:24:53.906Z,442.00
2022-09-03T11:25:53.733Z,438.00
2022-09-03T11:26:53.836Z,441.00
2022-09-03T11:27:56.590Z,436.00
2022-09-03T11:28:53.738Z,433.00
2022-09-03T11:29:53.744Z,435.00
2022-09-03T11:30:53.859Z,441.00
2022-09-03T11:31:53.654Z,448.00
2022-09-03T11:32:55.530Z,447.00
2022-09-03T11:33:53.629Z,443.00
2022-09-03T11:34:54.755Z,442.00
2022-09-03T11:35:53.605Z,439.00
2022-09-03T11:37:15.697Z,433.00
2022-09-03T11:37:53.592Z,438.00
2022-09-03T11:38:53.750Z,442.00
2022-09-03T11:39:53.595Z,442.00
2022-09-03T11:40:53.709Z,442.00
2022-09-03T11:41:53.579Z,443.00
2022-09-03T11:42:53.621Z,438.00
2022-09-03T11:43:53.549Z,441.00
2022-09-03T11:44:53.659Z,439.00
2022-09-03T11:45:53.513Z,437.00
2022-09-03T11:46:53.676Z,437.00
2022-09-03T11:47:53.488Z,438.00
2022-09-03T11:48:54.650Z,440.00
2022-09-03T11:49:53.487Z,439.00
2022-09-03T11:50:53.560Z,440.00
2022-09-03T11:51:53.390Z,437.00
2022-09-03T11:52:53.621Z,438.00
2022-09-03T11:53:53.392Z,438.00
2022-09-03T11:55:14.482Z,438.00
2022-09-03T11:55:53.371Z,438.00
2022-09-03T11:56:53.341Z,430.00
2022-09-03T11:57:55.431Z,434.00
2022-09-03T11:58:53.433Z,437.00
2022-09-03T11:59:53.471Z,447.00
2022-09-03T12:00:53.275Z,442.00
2022-09-03T12:01:53.472Z,441.00
2022-09-03T12:02:58.129Z,443.00
2022-09-03T12:03:54.252Z,440.00
2022-09-03T12:04:53.519Z,440.00
2022-09-03T12:05:53.251Z,440.00
2022-09-03T12:06:53.345Z,439.00
2022-09-03T12:07:53.182Z,443.00
2022-09-03T12:08:53.373Z,441.00
2022-09-03T12:09:53.204Z,444.00
2022-09-03T12:10:55.308Z,440.00
2022-09-03T12:11:53.194Z,438.00
2022-09-03T12:12:53.257Z,440.00
2022-09-03T12:13:53.105Z,435.00
2022-09-03T12:14:53.287Z,439.00
2022-09-03T12:15:53.126Z,439.00
2022-09-03T12:16:53.295Z,436.00
2022-09-03T12:17:53.155Z,440.00
2022-09-03T12:18:53.188Z,447.00
2022-09-03T12:19:53.026Z,439.00
2022-09-03T12:20:53.097Z,438.00
2022-09-03T12:21:53.012Z,441.00
2022-09-03T12:22:55.168Z,437.00
2022-09-03T12:23:55.573Z,430.00
2022-09-03T12:24:53.957Z,451.00
2022-09-03T12:25:54.060Z,444.00
2022-09-03T12:26:52.990Z,439.00
2022-09-03T12:27:53.066Z,445.00
2022-09-03T12:28:52.898Z,445.00
2022-09-03T12:29:53.044Z,442.00